Latest Coastal Weather Observations for Noarlunga

IDS60701

Issued at 9:51 pm CDT Saturday 25 February 2017 (issued every 10 minutes, with the page automatically refreshed every 10 minutes)

About coastal observations | Map of coastal stations | Coastal observations for SA | Marine services | Other Formats
Station Details ID: 023885 Name: NOARLUNGA Lat: -35.16 Lon: 138.51 Height: 55.0 m
Data from the previous 72 hours. | See also: Recent months at Noarlunga
Date/Time
CDT
Temp
°C
Wind Pressure Rain since
9am
mm
Weather Cloud Vis
km
Sea
Height
m
Swell
Dir  Spd
kts
Gust
kts
hPa Trend Height
m
Period
s
Dir
25/09:30pm 15.7 SE 10 16 - - 0.0 - - - - - - -
25/09:00pm 15.8 SSE 10 14 - - 0.0 - - - - - - -
25/08:30pm 15.9 SE 9 14 - - 0.0 - - - - - - -
25/08:00pm 16.5 SSE 14 19 - - 0.0 - - - - - - -
25/07:30pm 17.4 SSE 12 18 - - 0.0 - - - - - - -
25/07:00pm 18.0 SE 13 19 - - 0.0 - - - - - - -
25/06:30pm 18.7 SSE 14 18 - - 0.0 - - - - - - -
25/06:00pm 19.3 SSE 15 20 - - 0.0 - - - - - - -
25/05:30pm 20.4 SSE 11 18 - - 0.0 - - - - - - -
25/05:00pm 20.8 SSE 12 18 - - 0.0 - - - - - - -
25/04:30pm 20.8 SSE 14 21 - - 0.0 - - - - - - -
25/04:00pm 20.9 SSE 13 19 - - 0.0 - - - - - - -
25/03:30pm 21.6 SSE 13 19 - - 0.0 - - - - - - -
25/03:00pm 21.6 SSE 11 18 - - 0.0 - - - - - - -
25/02:30pm 21.7 SSE 14 20 - - 0.0 - - - - - - -
25/02:00pm 22.3 SSE 11 18 - - 0.0 - - - - - - -
25/01:30pm 20.9 SSE 11 19 - - 0.0 - - - - - - -
25/01:00pm 21.1 SSE 12 17 - - 0.0 - - - - - - -
25/12:30pm 20.5 SSE 14 19 - - 0.0 - - - - - - -
25/12:00pm 20.7 SE 14 20 - - 0.0 - - - - - - -
25/11:30am 20.3 SE 12 19 - - 0.0 - - - - - - -
25/11:00am 18.8 SE 15 22 - - 0.0 - - - - - - -
25/10:30am 19.0 SE 13 20 - - 0.0 - - - - - - -
25/10:00am 18.8 ESE 11 17 - - 0.0 - - - - - - -
25/09:30am 18.0 SE 13 19 - - 0.0 - - - - - - -
25/09:00am 17.1 SE 12 19 - - 0.0 - - - - - - -
25/08:30am 16.3 SE 10 16 - - 0.0 - - - - - - -
25/08:00am 15.6 ESE 12 18 - - 0.0 - - - - - - -
25/07:30am 14.9 ESE 10 15 - - 0.0 - - - - - - -
25/07:00am 14.7 ESE 11 17 - - 0.0 - - - - - - -
25/06:30am 14.8 ESE 11 18 - - 0.0 - - - - - - -
25/06:00am 14.7 SE 11 19 - - 0.0 - - - - - - -
25/05:30am 15.0 ESE 12 17 - - 0.0 - - - - - - -
25/05:00am 15.2 ESE 11 19 - - 0.0 - - - - - - -
25/04:30am 15.3 ESE 10 14 - - 0.0 - - - - - - -
25/04:00am 15.4 SE 10 15 - - 0.0 - - - - - - -
25/03:30am 15.6 SE 11 18 - - 0.0 - - - - - - -
25/03:00am 15.7 SE 10 15 - - 0.0 - - - - - - -
25/02:30am 15.4 SE 8 13 - - 0.0 - - - - - - -
25/02:00am 15.7 SE 12 17 - - 0.0 - - - - - - -
25/01:30am 15.6 SE 11 16 - - 0.0 - - - - - - -
25/01:00am 15.7 SE 11 17 - - 0.0 - - - - - - -
25/12:30am 15.4 SE 5 7 - - 0.0 - - - - - - -
25/12:00am 15.4 SE 9 14 - - 0.0 - - - - - - -
 
Date/Time
CDT
Temp
°C
Wind Pressure Rain since
9am
mm
Weather Cloud Vis
km
Sea
Height
m
Swell
Dir  Spd
kts
Gust
kts
hPa Trend Height
m
Period
s
Dir
24/11:30pm 14.9 SE 6 7 - - 0.0 - - - - - - -
24/11:00pm 15.0 SSE 4 6 - - 0.0 - - - - - - -
24/10:30pm 15.5 SSE 6 8 - - 0.0 - - - - - - -
24/10:00pm 15.9 SSE 8 12 - - 0.0 - - - - - - -
24/09:30pm 15.9 SSE 7 10 - - 0.0 - - - - - - -
24/09:00pm 16.4 S 6 8 - - 0.0 - - - - - - -
24/08:30pm 16.9 S 9 12 - - 0.0 - - - - - - -
24/08:00pm 17.3 SSE 12 18 - - 0.0 - - - - - - -
24/07:30pm 17.9 S 11 18 - - 0.0 - - - - - - -
24/07:00pm 17.9 SSE 14 18 - - 0.0 - - - - - - -
24/06:30pm 19.0 SSE 11 17 - - 0.0 - - - - - - -
24/06:00pm 18.6 SSE 14 20 - - 0.0 - - - - - - -
24/05:30pm 19.4 SSE 13 20 - - 0.0 - - - - - - -
24/05:00pm 19.2 SSE 13 19 - - 0.0 - - - - - - -
24/04:30pm 18.9 SSE 15 21 - - 0.0 - - - - - - -
24/04:00pm 20.2 SSE 13 17 - - 0.0 - - - - - - -
24/03:30pm 19.7 SSE 12 18 - - 0.0 - - - - - - -
24/03:00pm 20.2 S 13 18 - - 0.0 - - - - - - -
24/02:30pm 20.5 SSE 12 19 - - 0.0 - - - - - - -
24/02:00pm 21.7 SSE 12 20 - - 0.0 - - - - - - -
24/01:30pm 21.7 SSE 13 19 - - 0.0 - - - - - - -
24/01:00pm 21.6 S 10 15 - - 0.0 - - - - - - -
24/12:30pm 20.8 SSE 10 16 - - 0.0 - - - - - - -
24/12:00pm 20.1 SE 10 15 - - 0.0 - - - - - - -
24/11:30am 20.1 SSE 8 14 - - 0.0 - - - - - - -
24/11:00am 19.4 SE 8 13 - - 0.0 - - - - - - -
24/10:30am 18.9 SE 10 13 - - 0.0 - - - - - - -
24/10:00am 18.6 SE 11 15 - - 0.0 - - - - - - -
24/09:30am 17.8 SE 9 13 - - 0.0 - - - - - - -
24/09:00am 17.7 SSE 5 8 - - 0.0 - - - - - - -
24/08:30am 16.2 SE 3 3 - - 0.0 - - - - - - -
24/08:00am 14.7 CALM 0 2 - - 0.0 - - - - - - -
24/07:30am 12.5 SE 1 1 - - 0.0 - - - - - - -
24/07:00am 11.9 SSE 1 3 - - 0.0 - - - - - - -
24/06:30am 12.3 ESE 2 3 - - 0.0 - - - - - - -
24/06:00am 12.6 ESE 2 3 - - 0.0 - - - - - - -
24/05:30am 12.9 ESE 3 3 - - 0.0 - - - - - - -
24/05:00am 13.2 SE 4 5 - - 0.0 - - - - - - -
24/04:30am 13.6 SE 5 6 - - 0.0 - - - - - - -
24/04:00am 13.6 SE 4 6 - - 0.0 - - - - - - -
24/03:30am 14.2 SE 6 8 - - 0.0 - - - - - - -
24/03:00am 14.3 SE 5 8 - - 0.0 - - - - - - -
24/02:30am 14.7 SE 7 9 - - 0.0 - - - - - - -
24/02:00am 14.7 SE 7 9 - - 0.0 - - - - - - -
24/01:30am 14.9 SE 8 12 - - 0.0 - - - - - - -
24/01:00am 15.3 SE 7 9 - - 0.0 - - - - - - -
24/12:30am 15.5 SE 8 11 - - 0.0 - - - - - - -
24/12:00am 15.7 SE 8 9 - - 0.0 - - - - - - -
 
Date/Time
CDT
Temp
°C
Wind Pressure Rain since
9am
mm
Weather Cloud Vis
km
Sea
Height
m
Swell
Dir  Spd
kts
Gust
kts
hPa Trend Height
m
Period
s
Dir
23/11:30pm 15.9 SE 7 11 - - 0.0 - - - - - - -
23/11:00pm 16.1 SE 8 10 - - 0.0 - - - - - - -
23/10:30pm 16.2 SE 8 11 - - 0.0 - - - - - - -
23/10:00pm 16.6 SE 8 11 - - 0.0 - - - - - - -
23/09:30pm 16.8 SE 8 12 - - 0.0 - - - - - - -
23/09:00pm 17.3 SE 9 13 - - 0.0 - - - - - - -
23/08:30pm 18.0 SSE 9 12 - - 0.0 - - - - - - -
23/08:00pm 18.9 SSE 9 12 - - 0.0 - - - - - - -
23/07:30pm 19.9 S 8 11 - - 0.0 - - - - - - -
23/07:00pm 20.5 SW 10 16 - - 0.0 - - - - - - -
23/06:30pm 21.0 SW 8 13 - - 0.0 - - - - - - -
23/06:00pm 21.6 SW 9 13 - - 0.0 - - - - - - -
23/05:30pm 22.0 WSW 8 12 - - 0.0 - - - - - - -
23/05:00pm 22.5 SW 7 13 - - 0.0 - - - - - - -
23/04:30pm 22.0 SW 7 10 - - 0.0 - - - - - - -
23/04:00pm 21.6 WSW 7 13 - - 0.0 - - - - - - -
23/03:30pm 21.9 W 7 12 - - 0.0 - - - - - - -
23/03:00pm 21.9 WSW 8 14 - - 0.0 - - - - - - -
23/02:30pm 21.7 W 8 12 - - 0.0 - - - - - - -
23/02:00pm 21.2 WNW 7 13 - - 0.0 - - - - - - -
23/01:30pm 21.0 W 7 13 - - 0.0 - - - - - - -
23/01:00pm 20.7 W 8 13 - - 0.0 - - - - - - -
23/12:30pm 20.4 WNW 6 10 - - 0.0 - - - - - - -
23/12:00pm 20.6 WSW 6 11 - - 0.0 - - - - - - -
23/11:30am 19.2 SW 5 7 - - 0.0 - - - - - - -
23/11:00am 18.9 WSW 5 8 - - 0.0 - - - - - - -
23/10:30am 20.2 SSW 4 7 - - 0.0 - - - - - - -
23/10:00am 18.8 SSW 6 10 - - 0.0 - - - - - - -
23/09:30am 18.3 SW 5 9 - - 0.0 - - - - - - -
23/09:00am 18.4 SSW 5 8 - - 0.0 - - - - - - -
23/08:30am 17.8 SW 7 12 - - 0.0 - - - - - - -
23/08:00am 17.6 SW 6 11 - - 0.0 - - - - - - -
23/07:30am 17.3 SW 7 11 - - 0.0 - - - - - - -
23/07:00am 17.4 SW 8 13 - - 0.0 - - - - - - -
23/06:30am 17.5 SW 8 13 - - 0.0 - - - - - - -
23/06:00am 17.8 SW 9 14 - - 0.0 - - - - - - -
23/05:30am 17.9 SW 9 18 - - 0.0 - - - - - - -
23/05:00am 18.0 SW 7 15 - - 0.0 - - - - - - -
23/04:30am 18.6 WSW 10 15 - - 0.0 - - - - - - -
23/04:00am 18.4 WSW 9 15 - - 0.0 - - - - - - -
23/03:30am 18.5 WSW 9 14 - - 0.0 - - - - - - -
23/03:00am 18.6 W 8 13 - - 0.0 - - - - - - -
23/02:30am 18.6 WSW 9 15 - - 0.0 - - - - - - -
23/02:00am 18.6 WSW 8 14 - - 0.0 - - - - - - -
23/01:30am 18.7 W 9 14 - - 0.0 - - - - - - -
23/01:00am 18.7 W 6 10 - - 0.0 - - - - - - -
23/12:30am 19.1 W 9 17 - - 0.0 - - - - - - -
23/12:00am 19.1 W 10 15 - - 0.0 - - - - - - -
 
Date/Time
CDT
Temp
°C
Wind Pressure Rain since
9am
mm
Weather Cloud Vis
km
Sea
Height
m
Swell
Dir  Spd
kts
Gust
kts
hPa Trend Height
m
Period
s
Dir
22/11:30pm 19.5 W 9 17 - - 0.0 - - - - - - -
22/11:00pm 19.4 W 8 15 - - 0.0 - - - - - - -
22/10:30pm 19.6 W 9 15 - - 0.0 - - - - - - -
22/10:00pm 19.8 W 10 15 - - 0.0 - - - - - - -

Other Formats:

Comma delimited format used in spreadsheet applications
http://www.bom.gov.au/fwo/IDS60701/IDS60701.94808.axf

JavaScript Object Notation format (JSON) in row-major order
http://www.bom.gov.au/fwo/IDS60701/IDS60701.94808.json